sensor_id;sensor_type;location;lat;lon;timestamp;pressure;altitude;pressure_sealevel;temperature;humidity
29163;BME280;20331;53.144;8.208;2023-08-01T00:09:56;99805.47;;;17.61;100.00
29163;BME280;20331;53.144;8.208;2023-08-01T00:20:17;99785.34;;;17.62;100.00
29163;BME280;20331;53.144;8.208;2023-08-01T00:30:39;99779.19;;;17.63;100.00
29163;BME280;20331;53.144;8.208;2023-08-01T00:41:00;99769.06;;;17.58;100.00
29163;BME280;20331;53.144;8.208;2023-08-01T00:51:22;99758.00;;;17.55;100.00
29163;BME280;20331;53.144;8.208;2023-08-01T01:01:43;99739.81;;;17.53;100.00
29163;BME280;20331;53.144;8.208;2023-08-01T01:12:05;99725.88;;;17.53;100.00
29163;BME280;20331;53.144;8.208;2023-08-01T01:22:28;99712.31;;;17.48;100.00
29163;BME280;20331;53.144;8.208;2023-08-01T01:32:50;99722.03;;;17.46;100.00
29163;BME280;20331;53.144;8.208;2023-08-01T01:43:12;99709.41;;;17.40;100.00
29163;BME280;20331;53.144;8.208;2023-08-01T01:53:33;99704.56;;;17.35;100.00
29163;BME280;20331;53.144;8.208;2023-08-01T02:03:55;99681.13;;;17.34;100.00
29163;BME280;20331;53.144;8.208;2023-08-01T02:14:16;99675.03;;;17.22;100.00
29163;BME280;20331;53.144;8.208;2023-08-01T02:24:40;99664.41;;;17.01;100.00
29163;BME280;20331;53.144;8.208;2023-08-01T02:35:01;99638.53;;;16.98;100.00
29163;BME280;20331;53.144;8.208;2023-08-01T02:45:23;99632.81;;;16.93;100.00
29163;BME280;20331;53.144;8.208;2023-08-01T02:55:44;99628.06;;;16.98;100.00
29163;BME280;20331;53.144;8.208;2023-08-01T03:06:07;99626.88;;;17.02;100.00
29163;BME280;20331;53.144;8.208;2023-08-01T03:16:29;99612.97;;;17.02;100.00
29163;BME280;20331;53.144;8.208;2023-08-01T03:26:50;99621.41;;;17.05;100.00
29163;BME280;20331;53.144;8.208;2023-08-01T03:37:12;99640.44;;;17.07;100.00
29163;BME280;20331;53.144;8.208;2023-08-01T03:47:35;99637.06;;;16.94;100.00
29163;BME280;20331;53.144;8.208;2023-08-01T03:57:56;99640.06;;;16.90;100.00
29163;BME280;20331;53.144;8.208;2023-08-01T04:08:18;99628.63;;;16.91;100.00
29163;BME280;20331;53.144;8.208;2023-08-01T04:18:39;99626.13;;;16.89;100.00
29163;BME280;20331;53.144;8.208;2023-08-01T04:29:01;99637.16;;;16.82;100.00
29163;BME280;20331;53.144;8.208;2023-08-01T04:39:22;99647.25;;;16.75;100.00
29163;BME280;20331;53.144;8.208;2023-08-01T04:49:43;99628.25;;;16.73;100.00
29163;BME280;20331;53.144;8.208;2023-08-01T05:00:05;99622.63;;;16.67;100.00
29163;BME280;20331;53.144;8.208;2023-08-01T05:10:27;99632.72;;;16.60;100.00
29163;BME280;20331;53.144;8.208;2023-08-01T05:20:48;99631.03;;;16.59;100.00
29163;BME280;20331;53.144;8.208;2023-08-01T05:31:10;99626.78;;;16.69;100.00
29163;BME280;20331;53.144;8.208;2023-08-01T05:41:31;99623.63;;;16.77;100.00
29163;BME280;20331;53.144;8.208;2023-08-01T05:51:53;99635.75;;;16.89;100.00
29163;BME280;20331;53.144;8.208;2023-08-01T06:02:14;99628.66;;;17.02;100.00
29163;BME280;20331;53.144;8.208;2023-08-01T06:12:36;99633.03;;;17.01;100.00
29163;BME280;20331;53.144;8.208;2023-08-01T06:22:57;99643.50;;;17.01;100.00
29163;BME280;20331;53.144;8.208;2023-08-01T06:33:19;99649.22;;;16.95;100.00
29163;BME280;20331;53.144;8.208;2023-08-01T06:43:40;99646.03;;;17.03;100.00
29163;BME280;20331;53.144;8.208;2023-08-01T06:54:02;99669.63;;;17.01;100.00
29163;BME280;20331;53.144;8.208;2023-08-01T07:04:23;99666.53;;;16.96;100.00
29163;BME280;20331;53.144;8.208;2023-08-01T07:14:45;99673.47;;;16.97;100.00
29163;BME280;20331;53.144;8.208;2023-08-01T07:25:06;99675.41;;;17.18;100.00
29163;BME280;20331;53.144;8.208;2023-08-01T07:35:29;99671.63;;;17.44;100.00
29163;BME280;20331;53.144;8.208;2023-08-01T07:45:54;99668.22;;;17.54;100.00
29163;BME280;20331;53.144;8.208;2023-08-01T07:56:16;99663.09;;;17.64;98.85
29163;BME280;20331;53.144;8.208;2023-08-01T08:06:37;99663.22;;;17.84;97.47
29163;BME280;20331;53.144;8.208;2023-08-01T08:17:00;99667.13;;;18.01;94.22
29163;BME280;20331;53.144;8.208;2023-08-01T08:27:21;99674.84;;;18.14;95.95
29163;BME280;20331;53.144;8.208;2023-08-01T08:37:43;99677.44;;;18.14;94.72
29163;BME280;20331;53.144;8.208;2023-08-01T08:48:07;99656.31;;;18.48;91.19
29163;BME280;20331;53.144;8.208;2023-08-01T08:58:30;99663.56;;;18.56;90.01
29163;BME280;20331;53.144;8.208;2023-08-01T09:19:25;99669.22;;;18.29;91.50
29163;BME280;20331;53.144;8.208;2023-08-01T09:29:48;99674.91;;;18.34;93.47
29163;BME280;20331;53.144;8.208;2023-08-01T09:40:10;99668.97;;;18.43;91.24
29163;BME280;20331;53.144;8.208;2023-08-01T09:50:31;99661.22;;;18.73;89.93
29163;BME280;20331;53.144;8.208;2023-08-01T10:00:53;99671.16;;;18.59;90.44
29163;BME280;20331;53.144;8.208;2023-08-01T10:11:16;99671.25;;;18.26;93.64
29163;BME280;20331;53.144;8.208;2023-08-01T10:21:38;99675.41;;;18.28;95.66
29163;BME280;20331;53.144;8.208;2023-08-01T10:32:00;99679.63;;;18.62;90.01
29163;BME280;20331;53.144;8.208;2023-08-01T10:42:22;99672.94;;;18.69;88.79
29163;BME280;20331;53.144;8.208;2023-08-01T10:52:43;99677.16;;;19.02;87.72
29163;BME280;20331;53.144;8.208;2023-08-01T11:03:05;99686.41;;;19.17;85.88
29163;BME280;20331;53.144;8.208;2023-08-01T11:13:27;99687.66;;;19.02;86.18
29163;BME280;20331;53.144;8.208;2023-08-01T11:23:48;99699.50;;;18.96;88.93
29163;BME280;20331;53.144;8.208;2023-08-01T11:34:09;99697.53;;;18.78;93.27
29163;BME280;20331;53.144;8.208;2023-08-01T11:44:31;99714.22;;;18.45;95.72
29163;BME280;20331;53.144;8.208;2023-08-01T11:54:53;99754.59;;;17.98;99.88
29163;BME280;20331;53.144;8.208;2023-08-01T12:05:21;99755.75;;;18.17;100.00
29163;BME280;20331;53.144;8.208;2023-08-01T12:15:42;99728.38;;;18.85;100.00
29163;BME280;20331;53.144;8.208;2023-08-01T12:26:04;99783.75;;;18.49;99.23
29163;BME280;20331;53.144;8.208;2023-08-01T12:36:25;99804.66;;;17.72;100.00
29163;BME280;20331;53.144;8.208;2023-08-01T12:46:47;99798.13;;;17.77;100.00
29163;BME280;20331;53.144;8.208;2023-08-01T12:57:09;99798.88;;;18.24;100.00
29163;BME280;20331;53.144;8.208;2023-08-01T13:07:31;99800.56;;;18.47;98.81
29163;BME280;20331;53.144;8.208;2023-08-01T13:17:55;99796.34;;;18.66;100.00
29163;BME280;20331;53.144;8.208;2023-08-01T13:28:17;99803.41;;;18.97;96.14
29163;BME280;20331;53.144;8.208;2023-08-01T13:38:38;99817.19;;;19.11;95.33
29163;BME280;20331;53.144;8.208;2023-08-01T13:49:00;99824.84;;;19.14;92.53
29163;BME280;20331;53.144;8.208;2023-08-01T13:59:21;99842.41;;;18.91;100.00
29163;BME280;20331;53.144;8.208;2023-08-01T14:09:43;99836.19;;;18.92;100.00
29163;BME280;20331;53.144;8.208;2023-08-01T14:20:04;99841.34;;;18.93;97.38
29163;BME280;20331;53.144;8.208;2023-08-01T14:30:26;99849.81;;;18.97;94.76
29163;BME280;20331;53.144;8.208;2023-08-01T14:40:48;99864.25;;;18.91;95.41
29163;BME280;20331;53.144;8.208;2023-08-01T14:51:29;99850.88;;;18.83;93.41
29163;BME280;20331;53.144;8.208;2023-08-01T15:01:50;99884.25;;;18.92;91.75
29163;BME280;20331;53.144;8.208;2023-08-01T15:12:12;99873.38;;;19.08;92.04
29163;BME280;20331;53.144;8.208;2023-08-01T15:22:34;99884.63;;;19.42;88.25
29163;BME280;20331;53.144;8.208;2023-08-01T15:32:55;99894.53;;;19.38;86.36
29163;BME280;20331;53.144;8.208;2023-08-01T15:43:17;99880.25;;;19.63;86.25
29163;BME280;20331;53.144;8.208;2023-08-01T15:53:38;99891.38;;;19.55;86.67
29163;BME280;20331;53.144;8.208;2023-08-01T16:04:00;99921.00;;;19.67;81.86
29163;BME280;20331;53.144;8.208;2023-08-01T16:14:21;99894.22;;;19.84;81.09
29163;BME280;20331;53.144;8.208;2023-08-01T16:25:01;99925.47;;;19.66;81.88
29163;BME280;20331;53.144;8.208;2023-08-01T16:35:23;99924.44;;;19.47;81.65
29163;BME280;20331;53.144;8.208;2023-08-01T16:45:44;99924.78;;;18.55;92.12
29163;BME280;20331;53.144;8.208;2023-08-01T16:56:06;99941.19;;;18.46;94.50
29163;BME280;20331;53.144;8.208;2023-08-01T17:06:27;99947.34;;;18.34;94.30
29163;BME280;20331;53.144;8.208;2023-08-01T17:16:49;99955.19;;;18.23;91.95
29163;BME280;20331;53.144;8.208;2023-08-01T17:27:10;99953.38;;;18.13;91.54
29163;BME280;20331;53.144;8.208;2023-08-01T17:37:32;99951.56;;;18.48;91.46
29163;BME280;20331;53.144;8.208;2023-08-01T17:47:53;99964.97;;;18.32;91.73
29163;BME280;20331;53.144;8.208;2023-08-01T17:58:15;99965.78;;;18.22;92.75
29163;BME280;20331;53.144;8.208;2023-08-01T18:08:37;99970.47;;;18.29;91.71
29163;BME280;20331;53.144;8.208;2023-08-01T18:18:59;99973.03;;;18.18;92.63
29163;BME280;20331;53.144;8.208;2023-08-01T18:29:20;99991.22;;;18.08;91.79
29163;BME280;20331;53.144;8.208;2023-08-01T18:39:42;99993.44;;;18.02;92.20
29163;BME280;20331;53.144;8.208;2023-08-01T18:50:03;99999.75;;;17.99;92.23
29163;BME280;20331;53.144;8.208;2023-08-01T19:00:25;100007.72;;;17.98;92.66
29163;BME280;20331;53.144;8.208;2023-08-01T19:10:49;100014.25;;;17.92;93.61
29163;BME280;20331;53.144;8.208;2023-08-01T19:21:12;100037.97;;;17.78;94.52
29163;BME280;20331;53.144;8.208;2023-08-01T19:31:34;100036.56;;;17.62;96.17
29163;BME280;20331;53.144;8.208;2023-08-01T19:41:55;100043.72;;;17.47;96.85
29163;BME280;20331;53.144;8.208;2023-08-01T19:52:17;100045.19;;;17.51;96.40
29163;BME280;20331;53.144;8.208;2023-08-01T20:02:40;100055.22;;;17.45;96.93
29163;BME280;20331;53.144;8.208;2023-08-01T20:13:01;100066.72;;;17.42;96.54
29163;BME280;20331;53.144;8.208;2023-08-01T20:23:23;100063.59;;;17.37;95.61
29163;BME280;20331;53.144;8.208;2023-08-01T20:33:44;100076.78;;;17.36;95.68
29163;BME280;20331;53.144;8.208;2023-08-01T20:44:06;100078.69;;;17.34;95.08
29163;BME280;20331;53.144;8.208;2023-08-01T20:54:27;100068.13;;;17.23;96.74
29163;BME280;20331;53.144;8.208;2023-08-01T21:04:49;100064.03;;;17.19;96.98
29163;BME280;20331;53.144;8.208;2023-08-01T21:15:10;100067.63;;;17.18;97.09
29163;BME280;20331;53.144;8.208;2023-08-01T21:25:32;100062.16;;;17.21;97.26
29163;BME280;20331;53.144;8.208;2023-08-01T21:35:55;100063.09;;;17.20;97.48
29163;BME280;20331;53.144;8.208;2023-08-01T21:46:17;100062.38;;;17.18;97.12
29163;BME280;20331;53.144;8.208;2023-08-01T21:56:38;100069.28;;;17.19;96.32
29163;BME280;20331;53.144;8.208;2023-08-01T22:07:00;100060.28;;;17.23;95.95
29163;BME280;20331;53.144;8.208;2023-08-01T22:17:22;100067.16;;;17.24;96.56
29163;BME280;20331;53.144;8.208;2023-08-01T22:27:43;100070.94;;;17.20;96.60
29163;BME280;20331;53.144;8.208;2023-08-01T22:38:05;100076.81;;;17.10;96.83
29163;BME280;20331;53.144;8.208;2023-08-01T22:48:26;100074.72;;;16.90;99.79
29163;BME280;20331;53.144;8.208;2023-08-01T22:58:48;100082.03;;;16.85;100.00
29163;BME280;20331;53.144;8.208;2023-08-01T23:09:09;100086.53;;;16.83;100.00
29163;BME280;20331;53.144;8.208;2023-08-01T23:19:31;100094.59;;;16.80;100.00
29163;BME280;20331;53.144;8.208;2023-08-01T23:29:53;100088.53;;;16.80;100.00
29163;BME280;20331;53.144;8.208;2023-08-01T23:40:15;100093.13;;;16.76;100.00
29163;BME280;20331;53.144;8.208;2023-08-01T23:50:37;100083.63;;;16.75;100.00
